createdAt,value
2022-08-29T00:00:33.696Z,38.58
2022-08-29T00:03:01.268Z,38.58
2022-08-29T00:05:32.974Z,38.66
2022-08-29T00:08:01.667Z,38.78
2022-08-29T00:10:31.961Z,38.56
2022-08-29T00:12:58.612Z,38.67
2022-08-29T00:15:25.790Z,38.66
2022-08-29T00:17:52.681Z,38.89
2022-08-29T00:20:29.116Z,38.78
2022-08-29T00:23:01.940Z,38.47
2022-08-29T00:25:28.529Z,38.62
2022-08-29T00:27:55.184Z,38.49
2022-08-29T00:30:22.201Z,38.58
2022-08-29T00:32:48.777Z,38.69
2022-08-29T00:35:20.234Z,38.80
2022-08-29T00:37:46.877Z,39.13
2022-08-29T00:40:18.346Z,39.20
2022-08-29T00:42:45.053Z,39.07
2022-08-29T00:45:14.233Z,39.06
2022-08-29T00:47:46.645Z,38.95
2022-08-29T00:50:28.083Z,38.81
2022-08-29T00:52:57.305Z,38.60
2022-08-29T00:55:27.594Z,38.53
2022-08-29T00:57:58.810Z,38.52
2022-08-29T01:00:26.317Z,38.47
2022-08-29T01:02:54.366Z,38.70
2022-08-29T01:05:21.670Z,38.72
2022-08-29T01:07:48.561Z,38.65
2022-08-29T01:10:36.235Z,38.66
2022-08-29T01:13:04.595Z,38.57
2022-08-29T01:15:33.736Z,38.48
2022-08-29T01:18:04.910Z,38.58
2022-08-29T01:21:20.300Z,38.62
2022-08-29T01:23:59.686Z,38.67
2022-08-29T01:26:29.099Z,39.08
2022-08-29T01:28:56.567Z,39.13
2022-08-29T01:31:37.894Z,38.83
2022-08-29T01:34:16.384Z,38.66
2022-08-29T01:36:51.869Z,39.10
2022-08-29T01:39:22.197Z,38.88
2022-08-29T01:41:50.159Z,38.56
2022-08-29T01:44:19.395Z,39.01
2022-08-29T01:46:47.895Z,38.65
2022-08-29T01:49:15.690Z,38.64
2022-08-29T01:51:42.277Z,38.72
2022-08-29T01:54:10.933Z,39.03
2022-08-29T01:56:41.420Z,38.93
2022-08-29T01:59:10.994Z,38.60
2022-08-29T02:01:44.997Z,38.98
2022-08-29T02:04:11.936Z,39.10
2022-08-29T02:06:38.623Z,38.79
2022-08-29T02:09:06.292Z,39.05
2022-08-29T02:11:33.263Z,39.33
2022-08-29T02:14:00.017Z,39.15
2022-08-29T02:16:28.621Z,39.73
2022-08-29T02:18:55.955Z,39.45
2022-08-29T02:21:25.596Z,39.33
2022-08-29T02:23:53.341Z,39.21
2022-08-29T02:26:21.912Z,39.02
2022-08-29T02:28:51.737Z,39.30
2022-08-29T02:31:23.037Z,39.59
2022-08-29T02:33:50.757Z,39.37
2022-08-29T02:36:19.675Z,39.51
2022-08-29T02:38:46.558Z,39.42
2022-08-29T02:41:14.400Z,39.67
2022-08-29T02:43:41.544Z,39.47
2022-08-29T02:46:08.397Z,39.48
2022-08-29T02:48:34.896Z,39.49
2022-08-29T02:51:01.462Z,39.19
2022-08-29T02:53:31.114Z,39.82
2022-08-29T02:55:58.333Z,39.88
2022-08-29T02:58:25.693Z,39.61
2022-08-29T03:00:54.112Z,39.80
2022-08-29T03:03:20.917Z,39.58
2022-08-29T03:05:47.996Z,39.65
2022-08-29T03:08:15.110Z,39.64
2022-08-29T03:10:43.204Z,39.65
2022-08-29T03:13:10.781Z,39.46
2022-08-29T03:15:37.518Z,39.74
2022-08-29T03:18:04.609Z,39.79
2022-08-29T03:20:34.349Z,39.87
2022-08-29T03:23:00.831Z,39.84
2022-08-29T03:25:27.300Z,39.53
2022-08-29T03:27:53.949Z,39.73
2022-08-29T03:30:21.765Z,40.08
2022-08-29T03:32:51.075Z,40.06
2022-08-29T03:35:19.660Z,39.97
2022-08-29T03:37:46.247Z,40.03
2022-08-29T03:40:13.941Z,40.29
2022-08-29T03:42:41.105Z,40.03
2022-08-29T03:45:10.694Z,39.86
2022-08-29T03:47:37.266Z,40.34
2022-08-29T03:50:04.633Z,40.68
2022-08-29T03:52:31.349Z,40.48
2022-08-29T03:54:58.533Z,40.70
2022-08-29T03:57:26.562Z,40.56
2022-08-29T03:59:54.769Z,40.88
2022-08-29T04:02:21.251Z,40.89
2022-08-29T04:05:08.192Z,39.75
2022-08-29T04:07:55.945Z,40.23
2022-08-29T04:10:26.178Z,41.02
2022-08-29T04:12:54.870Z,40.95
2022-08-29T04:15:24.969Z,41.33
2022-08-29T04:17:54.505Z,41.27
2022-08-29T04:20:25.235Z,41.21
2022-08-29T04:22:54.216Z,41.57
2022-08-29T04:25:21.938Z,41.24
2022-08-29T04:27:49.702Z,41.38
2022-08-29T04:30:18.726Z,41.47
2022-08-29T04:32:45.298Z,41.95
2022-08-29T04:35:13.614Z,42.14
2022-08-29T04:37:40.858Z,42.28
2022-08-29T04:40:09.823Z,42.25
2022-08-29T04:42:40.046Z,42.11
2022-08-29T04:45:09.197Z,41.68
2022-08-29T04:47:36.226Z,41.70
2022-08-29T04:50:03.598Z,41.85
2022-08-29T04:52:30.463Z,41.65
2022-08-29T04:54:57.407Z,42.08
2022-08-29T04:57:24.863Z,42.54
2022-08-29T04:59:55.680Z,42.32
2022-08-29T05:02:23.802Z,42.24
2022-08-29T05:04:53.013Z,42.48
2022-08-29T05:07:21.692Z,42.09
2022-08-29T05:09:50.868Z,41.52
2022-08-29T05:12:18.400Z,41.75
2022-08-29T05:14:44.889Z,42.58
2022-08-29T05:17:11.271Z,40.67
2022-08-29T05:19:42.872Z,42.65
2022-08-29T05:22:14.491Z,42.96
2022-08-29T05:24:41.022Z,43.29
2022-08-29T05:27:11.364Z,41.42
2022-08-29T05:29:40.316Z,43.44
2022-08-29T05:32:08.691Z,43.42
2022-08-29T05:34:36.768Z,43.51
2022-08-29T05:37:07.093Z,43.48
2022-08-29T05:39:35.300Z,43.20
2022-08-29T05:42:02.480Z,43.52
2022-08-29T05:44:34.880Z,43.54
2022-08-29T05:47:03.678Z,43.23
2022-08-29T05:49:30.196Z,43.09
2022-08-29T05:51:56.608Z,41.85
2022-08-29T05:54:24.760Z,42.99
2022-08-29T05:56:56.980Z,43.21
2022-08-29T05:59:23.504Z,43.44
2022-08-29T06:01:49.940Z,42.26
2022-08-29T06:04:18.812Z,43.52
2022-08-29T06:06:45.369Z,43.74
2022-08-29T06:09:13.325Z,43.57
2022-08-29T06:11:40.077Z,43.83
2022-08-29T06:14:06.566Z,44.09
2022-08-29T06:16:33.050Z,42.52
2022-08-29T06:19:00.817Z,43.56
2022-08-29T06:21:27.540Z,44.35
2022-08-29T06:23:54.892Z,43.73
2022-08-29T06:26:21.565Z,43.93
2022-08-29T06:28:48.788Z,43.94
2022-08-29T06:31:20.966Z,44.41
2022-08-29T06:33:51.541Z,43.99
2022-08-29T06:36:18.261Z,44.11
2022-08-29T06:38:44.840Z,44.21
2022-08-29T06:41:15.436Z,44.14
2022-08-29T06:43:43.581Z,44.62
2022-08-29T06:46:21.863Z,43.77
2022-08-29T06:48:48.608Z,45.11
2022-08-29T06:51:15.116Z,44.78
2022-08-29T06:53:41.809Z,43.02
2022-08-29T06:56:11.251Z,45.20
2022-08-29T06:58:38.674Z,45.37
2022-08-29T07:01:10.704Z,45.29
2022-08-29T07:03:37.257Z,46.17
2022-08-29T07:06:04.361Z,43.41
2022-08-29T07:08:31.547Z,45.58
2022-08-29T07:10:58.166Z,46.04
2022-08-29T07:13:24.644Z,46.61
2022-08-29T07:15:51.492Z,43.96
2022-08-29T07:18:18.375Z,46.41
2022-08-29T07:20:44.859Z,46.69
2022-08-29T07:23:11.410Z,44.65
2022-08-29T07:25:38.678Z,47.06
2022-08-29T07:28:05.926Z,44.18
2022-08-29T07:30:33.403Z,46.50
2022-08-29T07:33:00.220Z,47.51
2022-08-29T07:35:30.353Z,47.69
2022-08-29T07:38:03.810Z,47.14
2022-08-29T07:40:30.582Z,47.97
2022-08-29T07:42:57.224Z,47.48
2022-08-29T07:45:23.651Z,45.63
2022-08-29T07:47:50.200Z,47.32
2022-08-29T07:50:17.206Z,48.12
2022-08-29T07:52:43.817Z,48.45
2022-08-29T07:55:10.574Z,48.22
2022-08-29T07:57:39.932Z,48.33
2022-08-29T08:00:12.372Z,48.40
2022-08-29T08:02:39.164Z,48.31
2022-08-29T08:05:07.213Z,48.24
2022-08-29T08:07:35.221Z,48.33
2022-08-29T08:10:02.373Z,47.82
2022-08-29T08:12:29.418Z,48.60
2022-08-29T08:14:57.105Z,48.11
2022-08-29T08:17:24.188Z,47.99
2022-08-29T08:19:50.753Z,48.27
2022-08-29T08:22:17.371Z,48.32
2022-08-29T08:24:45.025Z,47.94
2022-08-29T08:27:11.900Z,48.51
2022-08-29T08:29:38.472Z,48.09
2022-08-29T08:32:05.028Z,48.92
2022-08-29T08:34:35.415Z,48.27
2022-08-29T08:37:07.488Z,47.69
2022-08-29T08:39:34.674Z,48.48
2022-08-29T08:42:11.106Z,48.10
2022-08-29T08:44:58.119Z,47.69
2022-08-29T08:47:30.763Z,48.29
2022-08-29T08:50:18.416Z,47.97
2022-08-29T08:52:52.740Z,47.71
2022-08-29T08:55:42.856Z,47.12
2022-08-29T08:58:28.948Z,47.11
2022-08-29T09:01:18.501Z,47.65
2022-08-29T09:04:20.595Z,47.27
2022-08-29T09:06:53.382Z,47.67
2022-08-29T09:09:47.595Z,47.24
2022-08-29T09:12:49.825Z,47.20
2022-08-29T09:15:25.103Z,47.81
2022-08-29T09:18:14.196Z,46.85
2022-08-29T09:20:41.798Z,47.89
2022-08-29T09:23:28.358Z,47.42
2022-08-29T09:25:54.995Z,47.74
2022-08-29T09:28:21.785Z,47.81
2022-08-29T09:31:21.346Z,46.91
2022-08-29T09:33:58.197Z,47.89
2022-08-29T09:36:37.296Z,47.48
2022-08-29T09:39:33.144Z,47.01
2022-08-29T09:42:11.773Z,47.53
2022-08-29T09:44:40.392Z,48.34
2022-08-29T09:47:08.494Z,48.43
2022-08-29T09:49:37.446Z,48.48
2022-08-29T09:52:16.737Z,48.02
2022-08-29T09:54:44.774Z,48.61
2022-08-29T09:57:22.950Z,47.96
2022-08-29T10:00:14.561Z,47.68
2022-08-29T10:02:48.464Z,48.69
2022-08-29T10:05:40.680Z,47.84
2022-08-29T10:08:29.781Z,47.46
2022-08-29T10:11:02.925Z,48.00
2022-08-29T10:14:22.145Z,47.00
2022-08-29T10:16:56.415Z,47.89
2022-08-29T10:19:33.056Z,47.63
2022-08-29T10:22:42.250Z,46.56
2022-08-29T10:25:28.264Z,47.13
2022-08-29T10:28:03.260Z,47.51
2022-08-29T10:30:41.718Z,47.42
2022-08-29T10:33:20.245Z,47.08
2022-08-29T10:36:06.543Z,46.73
2022-08-29T10:38:32.977Z,47.14
2022-08-29T10:41:39.573Z,46.51
2022-08-29T10:47:04.053Z,46.08
2022-08-29T10:49:56.740Z,46.31
2022-08-29T10:52:46.856Z,46.46
2022-08-29T10:55:40.980Z,46.33
2022-08-29T10:58:31.850Z,46.24
2022-08-29T11:01:15.664Z,46.00
2022-08-29T11:04:00.925Z,45.79
2022-08-29T11:09:28.600Z,45.26
2022-08-29T11:12:10.564Z,45.01
2022-08-29T11:14:52.312Z,44.84
2022-08-29T11:17:23.436Z,44.21
2022-08-29T11:20:11.711Z,44.13
2022-08-29T11:22:59.679Z,44.41
2022-08-29T11:25:27.545Z,43.45
2022-08-29T11:28:06.482Z,43.90
2022-08-29T11:31:03.721Z,43.94
2022-08-29T11:33:49.103Z,42.58
2022-08-29T11:36:26.291Z,42.63
2022-08-29T11:39:14.135Z,42.52
2022-08-29T11:41:47.867Z,42.38
2022-08-29T11:44:26.542Z,42.00
2022-08-29T11:46:56.628Z,41.33
2022-08-29T11:49:47.888Z,42.75
2022-08-29T11:52:22.297Z,40.81
2022-08-29T11:54:54.292Z,40.22
2022-08-29T11:57:20.743Z,39.81
2022-08-29T11:59:48.579Z,38.67
2022-08-29T12:02:30.387Z,40.64
2022-08-29T12:04:58.091Z,39.32
2022-08-29T12:07:51.971Z,39.69
2022-08-29T12:10:24.431Z,39.18
2022-08-29T12:13:00.665Z,38.32
2022-08-29T12:15:27.126Z,37.18
2022-08-29T12:18:02.480Z,36.84
2022-08-29T12:20:36.199Z,37.32
2022-08-29T12:23:11.662Z,35.76
2022-08-29T12:26:21.181Z,37.73
2022-08-29T12:28:47.144Z,36.76
2022-08-29T12:31:16.454Z,36.01
2022-08-29T12:33:49.171Z,36.75
2022-08-29T12:36:36.510Z,37.09
2022-08-29T12:39:19.517Z,38.79
2022-08-29T12:41:58.312Z,37.32
2022-08-29T12:44:33.960Z,36.47
2022-08-29T12:47:42.869Z,37.86
2022-08-29T12:50:25.191Z,36.71
2022-08-29T12:52:58.837Z,35.96
2022-08-29T12:55:29.317Z,34.71
2022-08-29T12:57:57.138Z,34.80
2022-08-29T13:00:31.742Z,35.59
2022-08-29T13:03:19.996Z,36.15
2022-08-29T13:05:47.407Z,34.62
2022-08-29T13:08:26.585Z,34.64
2022-08-29T13:10:54.894Z,34.59
2022-08-29T13:13:24.305Z,34.11
2022-08-29T13:15:53.471Z,34.44
2022-08-29T13:18:21.501Z,33.75
2022-08-29T13:21:04.628Z,34.92
2022-08-29T13:23:37.402Z,34.30
2022-08-29T13:26:18.601Z,34.02
2022-08-29T13:29:01.121Z,35.54
2022-08-29T13:31:32.392Z,34.98
2022-08-29T13:33:58.870Z,33.94
2022-08-29T13:36:38.328Z,33.59
2022-08-29T13:39:25.173Z,34.75
2022-08-29T13:41:57.657Z,33.86
2022-08-29T13:44:36.991Z,33.61
2022-08-29T13:47:22.573Z,34.22
2022-08-29T13:49:50.281Z,33.05
2022-08-29T13:52:18.294Z,32.36
2022-08-29T13:54:45.050Z,32.43
2022-08-29T13:57:17.432Z,32.13
2022-08-29T13:59:44.658Z,32.13
2022-08-29T14:02:14.826Z,32.55
2022-08-29T14:04:43.011Z,32.53
2022-08-29T14:07:13.233Z,32.35
2022-08-29T14:09:42.346Z,32.58
2022-08-29T14:12:09.953Z,32.52
2022-08-29T14:14:36.483Z,32.26
2022-08-29T14:17:03.058Z,31.94
2022-08-29T14:19:30.471Z,31.61
2022-08-29T14:22:00.597Z,32.14
2022-08-29T14:24:30.765Z,32.47
2022-08-29T14:27:01.427Z,32.42
2022-08-29T14:29:33.799Z,32.71
2022-08-29T14:32:02.752Z,32.34
2022-08-29T14:34:32.591Z,32.25
2022-08-29T14:37:00.645Z,32.48
2022-08-29T14:39:27.375Z,32.59
2022-08-29T14:41:54.678Z,33.02
2022-08-29T14:44:22.253Z,33.27
2022-08-29T14:46:49.913Z,33.39
2022-08-29T14:49:16.448Z,33.22
2022-08-29T14:51:44.624Z,32.68
2022-08-29T14:54:11.834Z,33.18
2022-08-29T14:56:49.061Z,33.04
2022-08-29T14:59:16.627Z,33.57
2022-08-29T15:01:43.240Z,33.27
2022-08-29T15:04:11.095Z,33.06
2022-08-29T15:06:38.071Z,33.00
2022-08-29T15:09:04.950Z,33.33
2022-08-29T15:11:31.483Z,33.13
2022-08-29T15:14:02.242Z,32.92
2022-08-29T15:16:31.942Z,32.82
2022-08-29T15:19:44.750Z,33.01
2022-08-29T15:21:45.228Z,32.86
2022-08-29T15:24:11.818Z,32.41
2022-08-29T15:26:38.753Z,32.23
2022-08-29T15:29:05.563Z,32.35
2022-08-29T15:31:32.196Z,32.04
2022-08-29T15:33:58.727Z,32.45
2022-08-29T15:36:25.255Z,32.10
2022-08-29T15:38:51.875Z,32.53
2022-08-29T15:41:18.558Z,32.49
2022-08-29T15:43:45.054Z,32.46
2022-08-29T15:46:11.714Z,32.80
2022-08-29T15:48:38.284Z,32.44
2022-08-29T15:51:04.919Z,32.19
2022-08-29T15:53:31.735Z,32.90
2022-08-29T15:55:59.696Z,32.90
2022-08-29T15:58:26.263Z,32.77
2022-08-29T16:00:53.048Z,32.48
2022-08-29T16:03:19.573Z,32.51
2022-08-29T16:05:46.099Z,32.30
2022-08-29T16:08:16.418Z,32.42
2022-08-29T16:10:44.983Z,32.69
2022-08-29T16:13:11.876Z,33.03
2022-08-29T16:15:38.902Z,32.84
2022-08-29T16:18:06.784Z,32.92
2022-08-29T16:20:33.843Z,33.64
2022-08-29T16:23:01.116Z,33.43
2022-08-29T16:25:29.359Z,33.71
2022-08-29T16:27:56.810Z,34.02
2022-08-29T16:30:24.056Z,34.31
2022-08-29T16:32:51.064Z,34.40
2022-08-29T16:35:18.828Z,34.48
2022-08-29T16:37:46.157Z,34.83
2022-08-29T16:40:18.551Z,35.00
2022-08-29T16:42:55.506Z,35.22
2022-08-29T16:47:58.904Z,35.48
2022-08-29T16:50:26.724Z,35.34
2022-08-29T16:52:53.625Z,35.60
2022-08-29T16:55:20.856Z,35.18
2022-08-29T16:58:07.352Z,35.54
2022-08-29T17:00:34.357Z,35.36
2022-08-29T17:03:00.932Z,35.03
2022-08-29T17:05:27.701Z,35.26
2022-08-29T17:07:54.218Z,35.17
2022-08-29T17:10:20.749Z,35.03
2022-08-29T17:12:47.330Z,35.40
2022-08-29T17:15:13.989Z,35.49
2022-08-29T17:17:40.554Z,35.19
2022-08-29T17:20:08.071Z,35.65
2022-08-29T17:22:35.008Z,34.83
2022-08-29T17:25:01.989Z,34.35
2022-08-29T17:27:30.191Z,34.15
2022-08-29T17:29:57.057Z,34.38
2022-08-29T17:32:23.659Z,33.80
2022-08-29T17:34:50.441Z,33.89
2022-08-29T17:37:17.009Z,34.37
2022-08-29T17:39:43.614Z,34.48
2022-08-29T17:42:10.214Z,34.63
2022-08-29T17:44:36.819Z,34.63
2022-08-29T17:47:04.179Z,35.13
2022-08-29T17:49:30.825Z,35.14
2022-08-29T17:51:57.476Z,35.19
2022-08-29T17:54:25.034Z,34.76
2022-08-29T17:56:55.282Z,34.97
2022-08-29T17:59:23.090Z,34.95
2022-08-29T18:01:50.471Z,35.22
2022-08-29T18:04:18.122Z,35.77
2022-08-29T18:06:45.390Z,35.49
2022-08-29T18:09:12.984Z,35.53
2022-08-29T18:11:45.614Z,35.48
2022-08-29T18:14:12.326Z,35.88
2022-08-29T18:16:39.058Z,35.80
2022-08-29T18:19:06.430Z,35.94
2022-08-29T18:21:33.135Z,35.93
2022-08-29T18:24:00.109Z,35.76
2022-08-29T18:26:27.299Z,35.96
2022-08-29T18:28:55.199Z,35.96
2022-08-29T18:31:21.948Z,36.00
2022-08-29T18:34:04.122Z,36.70
2022-08-29T18:36:32.124Z,36.80
2022-08-29T18:38:59.616Z,37.19
2022-08-29T18:41:26.885Z,36.97
2022-08-29T18:43:53.723Z,37.06
2022-08-29T18:46:20.582Z,37.75
2022-08-29T18:48:47.796Z,37.65
2022-08-29T18:51:14.866Z,37.95
2022-08-29T18:53:42.185Z,37.91
2022-08-29T18:56:08.964Z,38.19
2022-08-29T18:58:36.096Z,38.37
2022-08-29T19:01:19.320Z,37.76
2022-08-29T19:03:55.670Z,38.59
2022-08-29T19:06:23.740Z,38.67
2022-08-29T19:08:50.392Z,38.57
2022-08-29T19:11:17.032Z,38.95
2022-08-29T19:13:43.835Z,38.85
2022-08-29T19:16:10.655Z,38.95
2022-08-29T19:18:38.426Z,39.32
2022-08-29T19:21:09.789Z,39.40
2022-08-29T19:23:41.777Z,39.32
2022-08-29T19:26:13.418Z,39.80
2022-08-29T19:28:41.256Z,40.25
2022-08-29T19:31:08.055Z,40.69
2022-08-29T19:33:36.156Z,40.52
2022-08-29T19:36:05.245Z,40.97
2022-08-29T19:38:32.070Z,41.50
2022-08-29T19:41:01.830Z,41.60
2022-08-29T19:43:31.069Z,40.86
2022-08-29T19:45:59.314Z,41.77
2022-08-29T19:48:26.845Z,41.61
2022-08-29T19:50:54.505Z,41.83
2022-08-29T19:53:26.058Z,42.09
2022-08-29T19:55:55.602Z,41.91
2022-08-29T19:58:23.630Z,42.42
2022-08-29T20:00:59.106Z,42.01
2022-08-29T20:03:28.358Z,42.12
2022-08-29T20:05:55.611Z,42.49
2022-08-29T20:08:22.949Z,42.65
2022-08-29T20:10:50.130Z,42.97
2022-08-29T20:13:17.308Z,42.81
2022-08-29T20:15:44.430Z,42.99
2022-08-29T20:18:14.298Z,43.24
2022-08-29T20:20:41.167Z,43.53
2022-08-29T20:23:08.468Z,44.10
2022-08-29T20:25:35.429Z,44.48
2022-08-29T20:28:03.715Z,44.94
2022-08-29T20:30:33.035Z,45.13
2022-08-29T20:32:59.811Z,45.32
2022-08-29T20:35:47.898Z,45.12
2022-08-29T20:38:14.709Z,45.45
2022-08-29T20:40:46.901Z,45.79
2022-08-29T20:43:14.856Z,45.57
2022-08-29T20:45:42.536Z,45.90
2022-08-29T20:48:10.810Z,46.08
2022-08-29T20:50:37.597Z,47.25
2022-08-29T20:53:09.131Z,48.15
2022-08-29T20:55:42.492Z,46.89
2022-08-29T20:58:09.354Z,47.71
2022-08-29T21:00:36.010Z,46.84
2022-08-29T21:03:21.238Z,47.45
2022-08-29T21:05:47.886Z,47.27
2022-08-29T21:08:20.388Z,46.11
2022-08-29T21:10:48.130Z,47.22
2022-08-29T21:13:15.392Z,46.51
2022-08-29T21:15:43.092Z,46.44
2022-08-29T21:18:11.859Z,46.52
2022-08-29T21:20:44.852Z,46.32
2022-08-29T21:23:22.222Z,46.24
2022-08-29T21:25:55.974Z,46.22
2022-08-29T21:28:24.861Z,45.75
2022-08-29T21:30:52.744Z,45.78
2022-08-29T21:33:20.643Z,46.08
2022-08-29T21:35:50.117Z,46.15
2022-08-29T21:38:17.542Z,45.34
2022-08-29T21:40:51.117Z,45.70
2022-08-29T21:43:19.425Z,45.67
2022-08-29T21:45:46.441Z,45.14
2022-08-29T21:48:13.227Z,45.21
2022-08-29T21:50:39.914Z,44.93
2022-08-29T21:53:06.446Z,45.11
2022-08-29T21:55:33.138Z,45.32
2022-08-29T21:58:01.020Z,45.29
2022-08-29T22:00:33.589Z,44.40
2022-08-29T22:03:02.838Z,44.79
2022-08-29T22:05:30.963Z,45.01
2022-08-29T22:07:57.753Z,44.89
2022-08-29T22:10:28.093Z,44.59
2022-08-29T22:12:55.197Z,44.79
2022-08-29T22:15:40.388Z,44.88
2022-08-29T22:18:07.103Z,44.99
2022-08-29T22:20:33.710Z,44.81
2022-08-29T22:23:00.262Z,44.66
2022-08-29T22:25:27.062Z,44.98
2022-08-29T22:27:53.735Z,44.75
2022-08-29T22:30:20.307Z,44.82
2022-08-29T22:47:02.260Z,43.83
2022-08-29T22:49:33.051Z,44.08
2022-08-29T22:52:00.171Z,44.39
2022-08-29T22:54:35.431Z,44.78
2022-08-29T22:57:04.475Z,44.63
2022-08-29T22:59:31.963Z,44.83
2022-08-29T23:01:58.523Z,44.69
2022-08-29T23:04:25.154Z,44.33
2022-08-29T23:06:51.687Z,44.66
2022-08-29T23:09:20.739Z,44.40
2022-08-29T23:11:47.731Z,44.40
2022-08-29T23:14:14.415Z,44.83
2022-08-29T23:16:41.907Z,44.58
2022-08-29T23:19:08.531Z,44.93
2022-08-29T23:21:35.687Z,44.74
2022-08-29T23:24:07.671Z,44.80
2022-08-29T23:26:35.283Z,44.36
2022-08-29T23:29:01.815Z,44.54
2022-08-29T23:31:28.422Z,44.39
2022-08-29T23:33:55.331Z,44.67
2022-08-29T23:36:21.939Z,44.58
2022-08-29T23:38:48.599Z,44.28
2022-08-29T23:41:19.847Z,44.44
2022-08-29T23:43:46.397Z,44.13
2022-08-29T23:46:13.956Z,44.38
2022-08-29T23:48:41.330Z,44.58
2022-08-29T23:51:10.386Z,44.33
2022-08-29T23:53:37.096Z,44.60
2022-08-29T23:58:37.036Z,44.27
